sensor_id;sensor_type;location;lat;lon;timestamp;P1;durP1;ratioP1;P2;durP2;ratioP2
53867;SDS011;41577;47.470;19.080;2023-09-19T00:00:01;8.18;;;3.50;;
53867;SDS011;41577;47.470;19.080;2023-09-19T00:00:15;12.07;;;3.35;;
53867;SDS011;41577;47.470;19.080;2023-09-19T00:00:26;15.23;;;3.55;;
53867;SDS011;41577;47.470;19.080;2023-09-19T00:00:38;9.70;;;3.10;;
53867;SDS011;41577;47.470;19.080;2023-09-19T00:00:50;6.15;;;3.05;;
53867;SDS011;41577;47.470;19.080;2023-09-19T00:01:07;6.30;;;3.20;;
53867;SDS011;41577;47.470;19.080;2023-09-19T00:01:19;7.60;;;3.45;;
53867;SDS011;41577;47.470;19.080;2023-09-19T00:01:31;8.68;;;3.42;;
53867;SDS011;41577;47.470;19.080;2023-09-19T00:01:43;10.68;;;3.88;;
53867;SDS011;41577;47.470;19.080;2023-09-19T00:01:55;11.95;;;3.75;;
53867;SDS011;41577;47.470;19.080;2023-09-19T00:02:07;12.07;;;3.83;;
53867;SDS011;41577;47.470;19.080;2023-09-19T00:02:19;8.55;;;2.97;;
53867;SDS011;41577;47.470;19.080;2023-09-19T00:02:31;7.90;;;2.75;;
53867;SDS011;41577;47.470;19.080;2023-09-19T00:02:43;5.40;;;2.67;;
53867;SDS011;41577;47.470;19.080;2023-09-19T00:02:55;5.10;;;2.97;;
53867;SDS011;41577;47.470;19.080;2023-09-19T00:03:08;5.38;;;3.10;;
53867;SDS011;41577;47.470;19.080;2023-09-19T00:03:20;4.60;;;3.15;;
53867;SDS011;41577;47.470;19.080;2023-09-19T00:03:31;5.38;;;3.22;;
53867;SDS011;41577;47.470;19.080;2023-09-19T00:03:43;6.75;;;3.35;;
53867;SDS011;41577;47.470;19.080;2023-09-19T00:03:55;7.07;;;3.38;;
53867;SDS011;41577;47.470;19.080;2023-09-19T00:04:07;8.80;;;3.58;;
53867;SDS011;41577;47.470;19.080;2023-09-19T00:04:19;8.73;;;3.20;;
53867;SDS011;41577;47.470;19.080;2023-09-19T00:04:31;7.80;;;3.00;;
53867;SDS011;41577;47.470;19.080;2023-09-19T00:04:43;10.48;;;2.80;;
53867;SDS011;41577;47.470;19.080;2023-09-19T00:04:55;11.57;;;3.22;;
53867;SDS011;41577;47.470;19.080;2023-09-19T00:05:07;10.48;;;3.38;;
53867;SDS011;41577;47.470;19.080;2023-09-19T00:05:18;11.15;;;3.22;;
53867;SDS011;41577;47.470;19.080;2023-09-19T00:05:33;13.15;;;3.22;;
53867;SDS011;41577;47.470;19.080;2023-09-19T00:05:46;10.52;;;3.30;;
53867;SDS011;41577;47.470;19.080;2023-09-19T00:05:58;7.38;;;3.13;;
53867;SDS011;41577;47.470;19.080;2023-09-19T00:06:09;5.35;;;3.25;;
53867;SDS011;41577;47.470;19.080;2023-09-19T00:06:21;7.07;;;3.45;;
53867;SDS011;41577;47.470;19.080;2023-09-19T00:06:33;12.13;;;3.72;;
53867;SDS011;41577;47.470;19.080;2023-09-19T00:06:44;12.60;;;3.78;;
53867;SDS011;41577;47.470;19.080;2023-09-19T00:06:56;8.25;;;3.63;;
53867;SDS011;41577;47.470;19.080;2023-09-19T00:07:08;7.28;;;3.25;;
53867;SDS011;41577;47.470;19.080;2023-09-19T00:07:20;7.13;;;3.22;;
53867;SDS011;41577;47.470;19.080;2023-09-19T00:07:31;7.63;;;3.38;;
53867;SDS011;41577;47.470;19.080;2023-09-19T00:07:43;12.38;;;3.72;;
53867;SDS011;41577;47.470;19.080;2023-09-19T00:07:55;12.65;;;3.85;;
53867;SDS011;41577;47.470;19.080;2023-09-19T00:08:08;6.97;;;3.45;;
53867;SDS011;41577;47.470;19.080;2023-09-19T00:08:20;6.50;;;3.05;;
53867;SDS011;41577;47.470;19.080;2023-09-19T00:08:31;7.53;;;3.20;;
53867;SDS011;41577;47.470;19.080;2023-09-19T00:08:43;8.77;;;3.42;;
53867;SDS011;41577;47.470;19.080;2023-09-19T00:08:55;8.23;;;3.15;;
53867;SDS011;41577;47.470;19.080;2023-09-19T00:09:07;8.82;;;3.10;;
53867;SDS011;41577;47.470;19.080;2023-09-19T00:09:18;8.82;;;3.25;;
53867;SDS011;41577;47.470;19.080;2023-09-19T00:09:30;7.97;;;3.42;;
53867;SDS011;41577;47.470;19.080;2023-09-19T00:09:42;7.13;;;3.53;;
53867;SDS011;41577;47.470;19.080;2023-09-19T00:09:55;9.68;;;3.45;;
53867;SDS011;41577;47.470;19.080;2023-09-19T00:10:07;16.63;;;3.63;;
53867;SDS011;41577;47.470;19.080;2023-09-19T00:10:19;17.80;;;3.58;;
53867;SDS011;41577;47.470;19.080;2023-09-19T00:10:31;12.63;;;3.40;;
53867;SDS011;41577;47.470;19.080;2023-09-19T00:10:44;7.80;;;3.20;;
53867;SDS011;41577;47.470;19.080;2023-09-19T00:10:56;5.75;;;3.13;;
53867;SDS011;41577;47.470;19.080;2023-09-19T00:11:08;5.38;;;3.20;;
53867;SDS011;41577;47.470;19.080;2023-09-19T00:11:20;8.18;;;3.22;;
53867;SDS011;41577;47.470;19.080;2023-09-19T00:11:32;8.23;;;3.15;;
53867;SDS011;41577;47.470;19.080;2023-09-19T00:11:44;10.93;;;3.10;;
53867;SDS011;41577;47.470;19.080;2023-09-19T00:11:55;13.57;;;3.25;;
53867;SDS011;41577;47.470;19.080;2023-09-19T00:12:07;14.43;;;3.67;;
53867;SDS011;41577;47.470;19.080;2023-09-19T00:12:19;10.15;;;3.90;;
53867;SDS011;41577;47.470;19.080;2023-09-19T00:12:30;11.18;;;4.00;;
53867;SDS011;41577;47.470;19.080;2023-09-19T00:12:42;9.93;;;3.63;;
53867;SDS011;41577;47.470;19.080;2023-09-19T00:12:54;6.18;;;3.22;;
53867;SDS011;41577;47.470;19.080;2023-09-19T00:13:06;5.63;;;2.72;;
53867;SDS011;41577;47.470;19.080;2023-09-19T00:13:18;6.18;;;2.72;;
53867;SDS011;41577;47.470;19.080;2023-09-19T00:13:30;6.95;;;3.10;;
53867;SDS011;41577;47.470;19.080;2023-09-19T00:13:41;5.35;;;3.40;;
53867;SDS011;41577;47.470;19.080;2023-09-19T00:13:54;6.68;;;3.60;;
53867;SDS011;41577;47.470;19.080;2023-09-19T00:14:05;6.50;;;3.47;;
53867;SDS011;41577;47.470;19.080;2023-09-19T00:14:17;5.78;;;3.10;;
53867;SDS011;41577;47.470;19.080;2023-09-19T00:14:29;10.13;;;3.50;;
53867;SDS011;41577;47.470;19.080;2023-09-19T00:14:41;8.93;;;3.40;;
53867;SDS011;41577;47.470;19.080;2023-09-19T00:14:53;7.57;;;3.13;;
53867;SDS011;41577;47.470;19.080;2023-09-19T00:15:05;3.85;;;2.65;;
53867;SDS011;41577;47.470;19.080;2023-09-19T00:15:17;5.10;;;2.80;;
53867;SDS011;41577;47.470;19.080;2023-09-19T00:15:29;7.47;;;3.00;;
53867;SDS011;41577;47.470;19.080;2023-09-19T00:15:41;8.15;;;2.97;;
53867;SDS011;41577;47.470;19.080;2023-09-19T00:15:54;6.90;;;2.92;;
53867;SDS011;41577;47.470;19.080;2023-09-19T00:16:08;7.30;;;3.10;;
53867;SDS011;41577;47.470;19.080;2023-09-19T00:16:20;7.07;;;3.17;;
53867;SDS011;41577;47.470;19.080;2023-09-19T00:16:32;6.28;;;3.50;;
53867;SDS011;41577;47.470;19.080;2023-09-19T00:16:45;5.50;;;3.75;;
53867;SDS011;41577;47.470;19.080;2023-09-19T00:16:57;6.13;;;3.75;;
53867;SDS011;41577;47.470;19.080;2023-09-19T00:17:09;7.43;;;3.63;;
53867;SDS011;41577;47.470;19.080;2023-09-19T00:17:21;6.22;;;3.38;;
53867;SDS011;41577;47.470;19.080;2023-09-19T00:17:33;4.38;;;3.22;;
53867;SDS011;41577;47.470;19.080;2023-09-19T00:17:44;9.70;;;3.58;;
53867;SDS011;41577;47.470;19.080;2023-09-19T00:17:56;12.40;;;3.75;;
53867;SDS011;41577;47.470;19.080;2023-09-19T00:18:08;12.77;;;3.63;;
53867;SDS011;41577;47.470;19.080;2023-09-19T00:18:20;10.30;;;3.28;;
53867;SDS011;41577;47.470;19.080;2023-09-19T00:18:33;11.07;;;2.95;;
53867;SDS011;41577;47.470;19.080;2023-09-19T00:18:45;11.07;;;2.88;;
53867;SDS011;41577;47.470;19.080;2023-09-19T00:18:56;12.77;;;3.47;;
53867;SDS011;41577;47.470;19.080;2023-09-19T00:19:09;9.52;;;3.65;;
53867;SDS011;41577;47.470;19.080;2023-09-19T00:19:21;9.20;;;3.63;;
53867;SDS011;41577;47.470;19.080;2023-09-19T00:19:32;8.47;;;3.30;;
53867;SDS011;41577;47.470;19.080;2023-09-19T00:19:44;8.48;;;3.42;;
53867;SDS011;41577;47.470;19.080;2023-09-19T00:19:56;11.65;;;3.72;;
53867;SDS011;41577;47.470;19.080;2023-09-19T00:20:08;11.95;;;3.58;;
53867;SDS011;41577;47.470;19.080;2023-09-19T00:20:20;9.05;;;2.90;;
53867;SDS011;41577;47.470;19.080;2023-09-19T00:20:32;8.45;;;3.05;;
53867;SDS011;41577;47.470;19.080;2023-09-19T00:20:46;10.55;;;3.47;;
53867;SDS011;41577;47.470;19.080;2023-09-19T00:20:58;12.85;;;3.67;;
53867;SDS011;41577;47.470;19.080;2023-09-19T00:21:10;13.57;;;3.38;;
53867;SDS011;41577;47.470;19.080;2023-09-19T00:21:22;11.02;;;3.10;;
53867;SDS011;41577;47.470;19.080;2023-09-19T00:21:34;8.90;;;2.80;;
53867;SDS011;41577;47.470;19.080;2023-09-19T00:21:45;3.90;;;2.90;;
53867;SDS011;41577;47.470;19.080;2023-09-19T00:21:57;4.35;;;2.80;;
53867;SDS011;41577;47.470;19.080;2023-09-19T00:22:09;4.18;;;2.83;;
53867;SDS011;41577;47.470;19.080;2023-09-19T00:22:21;3.28;;;2.63;;
53867;SDS011;41577;47.470;19.080;2023-09-19T00:22:33;5.10;;;2.83;;
53867;SDS011;41577;47.470;19.080;2023-09-19T00:23:02;8.15;;;3.40;;
53867;SDS011;41577;47.470;19.080;2023-09-19T00:23:14;8.77;;;3.30;;
53867;SDS011;41577;47.470;19.080;2023-09-19T00:23:26;7.57;;;2.90;;
53867;SDS011;41577;47.470;19.080;2023-09-19T00:23:37;7.20;;;2.92;;
53867;SDS011;41577;47.470;19.080;2023-09-19T00:23:50;9.38;;;2.78;;
53867;SDS011;41577;47.470;19.080;2023-09-19T00:24:01;14.07;;;3.60;;
53867;SDS011;41577;47.470;19.080;2023-09-19T00:24:13;9.20;;;3.63;;
53867;SDS011;41577;47.470;19.080;2023-09-19T00:24:25;7.22;;;3.40;;
53867;SDS011;41577;47.470;19.080;2023-09-19T00:24:36;5.05;;;3.00;;
53867;SDS011;41577;47.470;19.080;2023-09-19T00:24:48;10.95;;;3.20;;
53867;SDS011;41577;47.470;19.080;2023-09-19T00:25:01;12.00;;;3.33;;
53867;SDS011;41577;47.470;19.080;2023-09-19T00:25:14;11.82;;;3.45;;
53867;SDS011;41577;47.470;19.080;2023-09-19T00:25:26;10.95;;;3.53;;
53867;SDS011;41577;47.470;19.080;2023-09-19T00:25:38;9.73;;;3.53;;
53867;SDS011;41577;47.470;19.080;2023-09-19T00:25:49;9.27;;;3.50;;
53867;SDS011;41577;47.470;19.080;2023-09-19T00:26:01;9.77;;;3.40;;
53867;SDS011;41577;47.470;19.080;2023-09-19T00:26:13;9.43;;;3.33;;
53867;SDS011;41577;47.470;19.080;2023-09-19T00:26:30;7.43;;;3.30;;
53867;SDS011;41577;47.470;19.080;2023-09-19T00:26:43;6.80;;;3.42;;
53867;SDS011;41577;47.470;19.080;2023-09-19T00:26:55;8.18;;;3.22;;
53867;SDS011;41577;47.470;19.080;2023-09-19T00:27:06;10.30;;;3.28;;
53867;SDS011;41577;47.470;19.080;2023-09-19T00:27:18;9.60;;;3.67;;
53867;SDS011;41577;47.470;19.080;2023-09-19T00:27:30;6.35;;;3.90;;
53867;SDS011;41577;47.470;19.080;2023-09-19T00:27:42;7.15;;;3.78;;
53867;SDS011;41577;47.470;19.080;2023-09-19T00:27:54;8.25;;;3.15;;
53867;SDS011;41577;47.470;19.080;2023-09-19T00:28:06;7.85;;;3.30;;
53867;SDS011;41577;47.470;19.080;2023-09-19T00:28:18;5.82;;;3.45;;
53867;SDS011;41577;47.470;19.080;2023-09-19T00:28:31;6.65;;;3.65;;
53867;SDS011;41577;47.470;19.080;2023-09-19T00:28:43;5.78;;;3.33;;
53867;SDS011;41577;47.470;19.080;2023-09-19T00:28:55;5.60;;;3.28;;
53867;SDS011;41577;47.470;19.080;2023-09-19T00:29:07;5.95;;;3.30;;
53867;SDS011;41577;47.470;19.080;2023-09-19T00:29:19;7.70;;;3.40;;
53867;SDS011;41577;47.470;19.080;2023-09-19T00:29:30;6.53;;;3.58;;
53867;SDS011;41577;47.470;19.080;2023-09-19T00:29:42;9.10;;;3.80;;
53867;SDS011;41577;47.470;19.080;2023-09-19T00:29:54;8.57;;;3.45;;
53867;SDS011;41577;47.470;19.080;2023-09-19T00:30:06;6.93;;;3.13;;
53867;SDS011;41577;47.470;19.080;2023-09-19T00:30:19;3.88;;;2.70;;
53867;SDS011;41577;47.470;19.080;2023-09-19T00:30:31;6.00;;;2.80;;
53867;SDS011;41577;47.470;19.080;2023-09-19T00:30:43;6.18;;;3.08;;
53867;SDS011;41577;47.470;19.080;2023-09-19T00:30:55;9.32;;;3.15;;
53867;SDS011;41577;47.470;19.080;2023-09-19T00:31:07;10.23;;;3.20;;
53867;SDS011;41577;47.470;19.080;2023-09-19T00:31:19;9.50;;;2.97;;
53867;SDS011;41577;47.470;19.080;2023-09-19T00:31:31;6.90;;;3.17;;
53867;SDS011;41577;47.470;19.080;2023-09-19T00:31:43;8.38;;;3.65;;
53867;SDS011;41577;47.470;19.080;2023-09-19T00:31:55;9.73;;;3.92;;
53867;SDS011;41577;47.470;19.080;2023-09-19T00:32:07;8.77;;;3.78;;
53867;SDS011;41577;47.470;19.080;2023-09-19T00:32:19;7.78;;;3.90;;
53867;SDS011;41577;47.470;19.080;2023-09-19T00:32:31;9.38;;;4.05;;
53867;SDS011;41577;47.470;19.080;2023-09-19T00:32:42;11.02;;;3.75;;
53867;SDS011;41577;47.470;19.080;2023-09-19T00:32:54;9.25;;;3.60;;
53867;SDS011;41577;47.470;19.080;2023-09-19T00:33:06;7.45;;;3.42;;
53867;SDS011;41577;47.470;19.080;2023-09-19T00:33:18;8.82;;;3.13;;
53867;SDS011;41577;47.470;19.080;2023-09-19T00:33:30;13.82;;;3.13;;
53867;SDS011;41577;47.470;19.080;2023-09-19T00:33:42;11.82;;;3.20;;
53867;SDS011;41577;47.470;19.080;2023-09-19T00:33:54;13.52;;;3.60;;
53867;SDS011;41577;47.470;19.080;2023-09-19T00:34:06;12.00;;;3.45;;
53867;SDS011;41577;47.470;19.080;2023-09-19T00:34:18;12.32;;;3.60;;
53867;SDS011;41577;47.470;19.080;2023-09-19T00:34:30;13.82;;;3.42;;
53867;SDS011;41577;47.470;19.080;2023-09-19T00:34:42;7.55;;;3.40;;
53867;SDS011;41577;47.470;19.080;2023-09-19T00:34:55;8.02;;;3.55;;
53867;SDS011;41577;47.470;19.080;2023-09-19T00:35:06;8.18;;;3.53;;
53867;SDS011;41577;47.470;19.080;2023-09-19T00:35:19;7.15;;;4.03;;
53867;SDS011;41577;47.470;19.080;2023-09-19T00:35:30;11.98;;;4.55;;
53867;SDS011;41577;47.470;19.080;2023-09-19T00:35:46;11.00;;;4.35;;
53867;SDS011;41577;47.470;19.080;2023-09-19T00:35:58;5.15;;;3.50;;
53867;SDS011;41577;47.470;19.080;2023-09-19T00:36:10;6.57;;;3.45;;
53867;SDS011;41577;47.470;19.080;2023-09-19T00:36:22;6.55;;;3.38;;
53867;SDS011;41577;47.470;19.080;2023-09-19T00:36:33;6.85;;;3.28;;
53867;SDS011;41577;47.470;19.080;2023-09-19T00:36:45;5.15;;;3.10;;
53867;SDS011;41577;47.470;19.080;2023-09-19T00:36:57;5.32;;;3.05;;
53867;SDS011;41577;47.470;19.080;2023-09-19T00:37:09;6.45;;;3.25;;
53867;SDS011;41577;47.470;19.080;2023-09-19T00:37:22;8.47;;;3.70;;
53867;SDS011;41577;47.470;19.080;2023-09-19T00:37:33;9.05;;;4.05;;
53867;SDS011;41577;47.470;19.080;2023-09-19T00:37:45;8.88;;;3.85;;
53867;SDS011;41577;47.470;19.080;2023-09-19T00:37:57;7.63;;;3.55;;
53867;SDS011;41577;47.470;19.080;2023-09-19T00:38:09;8.00;;;3.25;;
53867;SDS011;41577;47.470;19.080;2023-09-19T00:38:21;6.80;;;3.33;;
53867;SDS011;41577;47.470;19.080;2023-09-19T00:38:33;7.47;;;3.25;;
53867;SDS011;41577;47.470;19.080;2023-09-19T00:38:45;7.50;;;3.20;;
53867;SDS011;41577;47.470;19.080;2023-09-19T00:38:56;8.10;;;3.22;;
53867;SDS011;41577;47.470;19.080;2023-09-19T00:39:08;7.38;;;3.40;;
53867;SDS011;41577;47.470;19.080;2023-09-19T00:39:20;7.15;;;3.42;;
53867;SDS011;41577;47.470;19.080;2023-09-19T00:39:32;7.90;;;3.15;;
53867;SDS011;41577;47.470;19.080;2023-09-19T00:39:44;9.57;;;3.30;;
53867;SDS011;41577;47.470;19.080;2023-09-19T00:39:55;9.02;;;3.40;;
53867;SDS011;41577;47.470;19.080;2023-09-19T00:40:09;6.75;;;3.20;;
53867;SDS011;41577;47.470;19.080;2023-09-19T00:40:22;8.70;;;3.38;;
53867;SDS011;41577;47.470;19.080;2023-09-19T00:40:34;10.25;;;3.83;;
53867;SDS011;41577;47.470;19.080;2023-09-19T00:40:45;9.70;;;3.95;;
53867;SDS011;41577;47.470;19.080;2023-09-19T00:40:58;8.35;;;3.72;;
53867;SDS011;41577;47.470;19.080;2023-09-19T00:41:11;9.75;;;3.45;;
53867;SDS011;41577;47.470;19.080;2023-09-19T00:41:23;10.00;;;3.13;;
53867;SDS011;41577;47.470;19.080;2023-09-19T00:41:35;8.77;;;3.20;;
53867;SDS011;41577;47.470;19.080;2023-09-19T00:41:47;8.93;;;3.58;;
53867;SDS011;41577;47.470;19.080;2023-09-19T00:41:59;8.38;;;3.75;;
53867;SDS011;41577;47.470;19.080;2023-09-19T00:42:17;7.63;;;3.35;;
53867;SDS011;41577;47.470;19.080;2023-09-19T00:42:29;9.38;;;3.10;;
53867;SDS011;41577;47.470;19.080;2023-09-19T00:42:41;9.93;;;3.25;;
53867;SDS011;41577;47.470;19.080;2023-09-19T00:42:53;8.90;;;3.22;;
53867;SDS011;41577;47.470;19.080;2023-09-19T00:43:09;6.45;;;3.50;;
53867;SDS011;41577;47.470;19.080;2023-09-19T00:43:21;6.88;;;3.58;;
53867;SDS011;41577;47.470;19.080;2023-09-19T00:43:33;7.85;;;3.58;;
53867;SDS011;41577;47.470;19.080;2023-09-19T00:43:45;6.35;;;3.42;;
53867;SDS011;41577;47.470;19.080;2023-09-19T00:43:57;7.90;;;3.75;;
53867;SDS011;41577;47.470;19.080;2023-09-19T00:44:09;8.13;;;3.60;;
53867;SDS011;41577;47.470;19.080;2023-09-19T00:44:21;8.27;;;3.53;;
53867;SDS011;41577;47.470;19.080;2023-09-19T00:44:34;8.88;;;3.35;;
53867;SDS011;41577;47.470;19.080;2023-09-19T00:44:46;9.10;;;3.67;;
53867;SDS011;41577;47.470;19.080;2023-09-19T00:44:57;9.63;;;3.72;;
53867;SDS011;41577;47.470;19.080;2023-09-19T00:45:10;6.30;;;3.20;;
53867;SDS011;41577;47.470;19.080;2023-09-19T00:45:23;11.35;;;3.10;;
53867;SDS011;41577;47.470;19.080;2023-09-19T00:45:35;11.65;;;3.17;;
53867;SDS011;41577;47.470;19.080;2023-09-19T00:45:49;10.23;;;3.22;;
53867;SDS011;41577;47.470;19.080;2023-09-19T00:46:02;5.95;;;3.28;;
53867;SDS011;41577;47.470;19.080;2023-09-19T00:46:16;4.93;;;3.33;;
53867;SDS011;41577;47.470;19.080;2023-09-19T00:46:30;8.15;;;2.97;;
53867;SDS011;41577;47.470;19.080;2023-09-19T00:46:42;11.85;;;3.33;;
53867;SDS011;41577;47.470;19.080;2023-09-19T00:46:54;13.80;;;3.13;;
53867;SDS011;41577;47.470;19.080;2023-09-19T00:47:06;14.75;;;3.53;;
53867;SDS011;41577;47.470;19.080;2023-09-19T00:47:18;11.88;;;3.63;;
53867;SDS011;41577;47.470;19.080;2023-09-19T00:47:30;9.85;;;3.50;;
53867;SDS011;41577;47.470;19.080;2023-09-19T00:47:44;7.00;;;3.40;;
53867;SDS011;41577;47.470;19.080;2023-09-19T00:47:57;6.43;;;3.08;;
53867;SDS011;41577;47.470;19.080;2023-09-19T00:48:13;5.07;;;2.88;;
53867;SDS011;41577;47.470;19.080;2023-09-19T00:48:25;4.72;;;3.05;;
53867;SDS011;41577;47.470;19.080;2023-09-19T00:48:38;7.10;;;3.13;;
53867;SDS011;41577;47.470;19.080;2023-09-19T00:48:53;14.55;;;3.58;;
53867;SDS011;41577;47.470;19.080;2023-09-19T00:49:04;13.27;;;3.67;;
53867;SDS011;41577;47.470;19.080;2023-09-19T00:49:20;6.57;;;3.20;;
53867;SDS011;41577;47.470;19.080;2023-09-19T00:49:32;7.47;;;3.10;;
53867;SDS011;41577;47.470;19.080;2023-09-19T00:49:44;7.28;;;3.22;;
53867;SDS011;41577;47.470;19.080;2023-09-19T00:49:56;9.65;;;3.53;;
53867;SDS011;41577;47.470;19.080;2023-09-19T00:50:09;8.13;;;3.58;;
53867;SDS011;41577;47.470;19.080;2023-09-19T00:50:22;6.28;;;3.45;;
53867;SDS011;41577;47.470;19.080;2023-09-19T00:50:36;6.37;;;3.17;;
53867;SDS011;41577;47.470;19.080;2023-09-19T00:50:48;9.20;;;3.17;;
53867;SDS011;41577;47.470;19.080;2023-09-19T00:51:02;8.83;;;3.40;;
53867;SDS011;41577;47.470;19.080;2023-09-19T00:51:15;8.18;;;3.10;;
53867;SDS011;41577;47.470;19.080;2023-09-19T00:51:28;11.93;;;3.53;;
53867;SDS011;41577;47.470;19.080;2023-09-19T00:51:39;12.65;;;3.97;;
53867;SDS011;41577;47.470;19.080;2023-09-19T00:51:51;10.70;;;4.22;;
53867;SDS011;41577;47.470;19.080;2023-09-19T00:52:03;13.13;;;3.70;;
53867;SDS011;41577;47.470;19.080;2023-09-19T00:52:16;10.05;;;3.22;;
53867;SDS011;41577;47.470;19.080;2023-09-19T00:52:29;5.93;;;3.17;;
53867;SDS011;41577;47.470;19.080;2023-09-19T00:52:42;6.68;;;3.63;;
53867;SDS011;41577;47.470;19.080;2023-09-19T00:52:54;7.95;;;3.75;;
53867;SDS011;41577;47.470;19.080;2023-09-19T00:53:06;7.40;;;3.47;;
53867;SDS011;41577;47.470;19.080;2023-09-19T00:53:19;7.72;;;3.25;;
53867;SDS011;41577;47.470;19.080;2023-09-19T00:53:33;7.78;;;3.20;;
53867;SDS011;41577;47.470;19.080;2023-09-19T00:53:46;8.38;;;3.53;;
53867;SDS011;41577;47.470;19.080;2023-09-19T00:53:58;9.30;;;3.45;;
53867;SDS011;41577;47.470;19.080;2023-09-19T00:54:11;8.15;;;3.30;;
53867;SDS011;41577;47.470;19.080;2023-09-19T00:54:22;7.13;;;3.20;;
53867;SDS011;41577;47.470;19.080;2023-09-19T00:54:34;4.90;;;3.22;;
53867;SDS011;41577;47.470;19.080;2023-09-19T00:54:46;9.95;;;3.92;;
53867;SDS011;41577;47.470;19.080;2023-09-19T00:54:58;13.27;;;4.10;;
53867;SDS011;41577;47.470;19.080;2023-09-19T00:55:11;12.45;;;3.80;;
53867;SDS011;41577;47.470;19.080;2023-09-19T00:55:25;8.00;;;3.33;;
53867;SDS011;41577;47.470;19.080;2023-09-19T00:55:40;7.97;;;3.35;;
53867;SDS011;41577;47.470;19.080;2023-09-19T00:55:52;7.35;;;3.50;;
53867;SDS011;41577;47.470;19.080;2023-09-19T00:56:04;9.85;;;3.45;;
53867;SDS011;41577;47.470;19.080;2023-09-19T00:56:16;11.93;;;3.70;;
53867;SDS011;41577;47.470;19.080;2023-09-19T00:56:28;16.52;;;3.42;;
53867;SDS011;41577;47.470;19.080;2023-09-19T00:56:40;15.18;;;3.70;;
53867;SDS011;41577;47.470;19.080;2023-09-19T00:56:52;9.57;;;3.55;;
53867;SDS011;41577;47.470;19.080;2023-09-19T00:57:04;10.45;;;4.05;;
53867;SDS011;41577;47.470;19.080;2023-09-19T00:57:16;8.98;;;4.03;;
53867;SDS011;41577;47.470;19.080;2023-09-19T00:57:28;8.57;;;3.35;;
53867;SDS011;41577;47.470;19.080;2023-09-19T00:57:40;12.05;;;3.38;;
53867;SDS011;41577;47.470;19.080;2023-09-19T00:57:53;11.52;;;3.30;;
53867;SDS011;41577;47.470;19.080;2023-09-19T00:58:08;7.32;;;3.58;;
53867;SDS011;41577;47.470;19.080;2023-09-19T00:58:20;5.88;;;3.60;;
53867;SDS011;41577;47.470;19.080;2023-09-19T00:58:32;6.22;;;3.70;;
53867;SDS011;41577;47.470;19.080;2023-09-19T00:58:45;9.55;;;3.80;;
53867;SDS011;41577;47.470;19.080;2023-09-19T00:58:57;9.60;;;3.80;;
53867;SDS011;41577;47.470;19.080;2023-09-19T00:59:09;7.53;;;3.53;;
53867;SDS011;41577;47.470;19.080;2023-09-19T00:59:21;7.35;;;3.25;;
53867;SDS011;41577;47.470;19.080;2023-09-19T00:59:33;8.95;;;3.10;;
53867;SDS011;41577;47.470;19.080;2023-09-19T00:59:45;10.10;;;3.30;;
53867;SDS011;41577;47.470;19.080;2023-09-19T00:59:59;8.93;;;3.17;;
53867;SDS011;41577;47.470;19.080;2023-09-19T01:00:12;9.73;;;3.28;;
53867;SDS011;41577;47.470;19.080;2023-09-19T01:00:25;14.85;;;3.38;;
53867;SDS011;41577;47.470;19.080;2023-09-19T01:00:37;13.82;;;3.47;;
53867;SDS011;41577;47.470;19.080;2023-09-19T01:00:50;16.00;;;3.80;;
53867;SDS011;41577;47.470;19.080;2023-09-19T01:01:02;14.23;;;3.80;;
53867;SDS011;41577;47.470;19.080;2023-09-19T01:01:16;8.38;;;3.42;;
53867;SDS011;41577;47.470;19.080;2023-09-19T01:01:28;10.32;;;3.33;;
53867;SDS011;41577;47.470;19.080;2023-09-19T01:01:40;11.15;;;3.47;;
53867;SDS011;41577;47.470;19.080;2023-09-19T01:01:52;8.80;;;3.20;;
53867;SDS011;41577;47.470;19.080;2023-09-19T01:02:05;6.28;;;3.20;;
53867;SDS011;41577;47.470;19.080;2023-09-19T01:02:18;5.45;;;3.08;;
53867;SDS011;41577;47.470;19.080;2023-09-19T01:02:30;7.30;;;3.67;;
53867;SDS011;41577;47.470;19.080;2023-09-19T01:02:43;10.02;;;3.90;;
53867;SDS011;41577;47.470;19.080;2023-09-19T01:02:57;12.38;;;3.65;;
53867;SDS011;41577;47.470;19.080;2023-09-19T01:03:09;10.27;;;3.83;;
53867;SDS011;41577;47.470;19.080;2023-09-19T01:03:21;5.47;;;3.50;;
53867;SDS011;41577;47.470;19.080;2023-09-19T01:03:34;5.47;;;3.28;;
53867;SDS011;41577;47.470;19.080;2023-09-19T01:03:46;8.23;;;3.88;;
53867;SDS011;41577;47.470;19.080;2023-09-19T01:03:58;9.15;;;3.90;;
53867;SDS011;41577;47.470;19.080;2023-09-19T01:04:10;7.57;;;3.42;;
53867;SDS011;41577;47.470;19.080;2023-09-19T01:04:23;8.05;;;3.42;;
53867;SDS011;41577;47.470;19.080;2023-09-19T01:04:36;8.18;;;3.80;;
53867;SDS011;41577;47.470;19.080;2023-09-19T01:04:49;7.53;;;3.80;;
53867;SDS011;41577;47.470;19.080;2023-09-19T01:05:01;7.53;;;3.65;;
53867;SDS011;41577;47.470;19.080;2023-09-19T01:05:13;11.05;;;4.10;;
53867;SDS011;41577;47.470;19.080;2023-09-19T01:05:25;12.48;;;4.10;;
53867;SDS011;41577;47.470;19.080;2023-09-19T01:05:37;9.10;;;4.07;;
53867;SDS011;41577;47.470;19.080;2023-09-19T01:05:48;8.38;;;3.58;;
53867;SDS011;41577;47.470;19.080;2023-09-19T01:06:02;6.40;;;3.47;;
53867;SDS011;41577;47.470;19.080;2023-09-19T01:06:14;5.13;;;3.67;;
53867;SDS011;41577;47.470;19.080;2023-09-19T01:06:26;5.93;;;4.07;;
53867;SDS011;41577;47.470;19.080;2023-09-19T01:06:38;5.90;;;4.10;;
53867;SDS011;41577;47.470;19.080;2023-09-19T01:06:50;7.05;;;4.03;;
53867;SDS011;41577;47.470;19.080;2023-09-19T01:07:02;7.32;;;3.78;;
53867;SDS011;41577;47.470;19.080;2023-09-19T01:07:14;8.20;;;4.00;;
53867;SDS011;41577;47.470;19.080;2023-09-19T01:07:26;8.55;;;4.10;;
53867;SDS011;41577;47.470;19.080;2023-09-19T01:07:41;8.30;;;4.00;;
53867;SDS011;41577;47.470;19.080;2023-09-19T01:07:53;9.38;;;3.80;;
53867;SDS011;41577;47.470;19.080;2023-09-19T01:08:06;8.35;;;3.30;;
53867;SDS011;41577;47.470;19.080;2023-09-19T01:08:17;7.63;;;3.63;;
53867;SDS011;41577;47.470;19.080;2023-09-19T01:08:29;7.18;;;3.95;;
53867;SDS011;41577;47.470;19.080;2023-09-19T01:08:41;9.18;;;4.22;;
53867;SDS011;41577;47.470;19.080;2023-09-19T01:08:53;7.28;;;3.90;;
53867;SDS011;41577;47.470;19.080;2023-09-19T01:09:04;12.02;;;3.92;;
53867;SDS011;41577;47.470;19.080;2023-09-19T01:09:16;11.38;;;3.88;;
53867;SDS011;41577;47.470;19.080;2023-09-19T01:09:28;13.40;;;4.38;;
53867;SDS011;41577;47.470;19.080;2023-09-19T01:09:40;8.15;;;3.65;;
53867;SDS011;41577;47.470;19.080;2023-09-19T01:09:52;8.43;;;4.15;;
53867;SDS011;41577;47.470;19.080;2023-09-19T01:10:04;8.40;;;4.47;;
53867;SDS011;41577;47.470;19.080;2023-09-19T01:10:19;7.40;;;4.50;;
53867;SDS011;41577;47.470;19.080;2023-09-19T01:10:33;10.52;;;3.70;;
53867;SDS011;41577;47.470;19.080;2023-09-19T01:10:46;12.23;;;3.50;;
53867;SDS011;41577;47.470;19.080;2023-09-19T01:11:06;8.40;;;3.47;;
53867;SDS011;41577;47.470;19.080;2023-09-19T01:11:25;7.70;;;4.05;;
53867;SDS011;41577;47.470;19.080;2023-09-19T01:11:43;8.55;;;3.97;;
53867;SDS011;41577;47.470;19.080;2023-09-19T01:12:00;9.85;;;3.67;;
53867;SDS011;41577;47.470;19.080;2023-09-19T01:12:15;10.10;;;4.10;;
53867;SDS011;41577;47.470;19.080;2023-09-19T01:12:36;10.00;;;4.28;;
53867;SDS011;41577;47.470;19.080;2023-09-19T01:12:59;12.50;;;3.88;;
53867;SDS011;41577;47.470;19.080;2023-09-19T01:13:22;9.75;;;3.55;;
53867;SDS011;41577;47.470;19.080;2023-09-19T01:13:49;14.13;;;3.95;;
53867;SDS011;41577;47.470;19.080;2023-09-19T01:14:11;21.02;;;3.80;;